createdAt,value
2022-08-03T00:01:50.668Z,100464.84
2022-08-03T00:04:18.046Z,100470.00
2022-08-03T00:06:45.052Z,100468.50
2022-08-03T00:09:12.404Z,100458.06
2022-08-03T00:11:39.602Z,100476.06
2022-08-03T00:14:07.085Z,100472.16
2022-08-03T00:16:34.265Z,100470.63
2022-08-03T00:19:02.367Z,100469.56
2022-08-03T00:21:29.664Z,100475.00
2022-08-03T00:23:57.013Z,100470.06
2022-08-03T00:26:24.157Z,100471.22
2022-08-03T00:28:51.268Z,100475.09
2022-08-03T00:31:40.171Z,100471.84
2022-08-03T00:34:06.005Z,100468.03
2022-08-03T00:36:33.844Z,100469.59
2022-08-03T00:39:00.832Z,100464.25
2022-08-03T00:41:27.917Z,100459.00
2022-08-03T00:43:54.893Z,100459.25
2022-08-03T00:46:22.511Z,100463.88
2022-08-03T00:48:50.942Z,100459.72
2022-08-03T00:51:19.895Z,100461.56
2022-08-03T00:53:47.198Z,100461.41
2022-08-03T00:56:16.178Z,100462.00
2022-08-03T00:58:45.747Z,100460.88
2022-08-03T01:01:13.675Z,100461.16
2022-08-03T01:03:41.295Z,100454.47
2022-08-03T01:06:15.519Z,100465.00
2022-08-03T01:09:19.651Z,100457.44
2022-08-03T01:12:06.166Z,100465.31
2022-08-03T01:14:41.728Z,100452.59
2022-08-03T01:17:53.430Z,100457.63
2022-08-03T01:20:22.239Z,100454.19
2022-08-03T01:23:28.876Z,100453.00
2022-08-03T01:26:22.395Z,100445.22
2022-08-03T01:29:01.481Z,100451.78
2022-08-03T01:32:53.636Z,100444.06
2022-08-03T01:35:04.532Z,100443.25
2022-08-03T01:38:05.639Z,100447.34
2022-08-03T01:40:36.663Z,100430.09
2022-08-03T01:43:06.610Z,100441.22
2022-08-03T01:45:34.472Z,100442.28
2022-08-03T01:48:02.637Z,100445.44
2022-08-03T01:50:31.867Z,100433.53
2022-08-03T01:53:00.078Z,100451.53
2022-08-03T01:55:29.000Z,100440.94
2022-08-03T01:58:05.215Z,100432.44
2022-08-03T02:00:37.650Z,100429.59
2022-08-03T02:03:09.660Z,100438.97
2022-08-03T02:05:38.314Z,100432.19
2022-08-03T02:08:07.734Z,100443.25
2022-08-03T02:10:37.642Z,100438.75
2022-08-03T02:13:08.072Z,100445.38
2022-08-03T02:15:37.983Z,100445.84
2022-08-03T02:18:08.684Z,100436.69
2022-08-03T02:20:38.851Z,100443.34
2022-08-03T02:23:07.143Z,100443.31
2022-08-03T02:25:45.949Z,100443.94
2022-08-03T02:28:20.482Z,100450.59
2022-08-03T02:30:54.879Z,100439.91
2022-08-03T02:33:34.271Z,100435.91
2022-08-03T02:36:02.642Z,100445.22
2022-08-03T02:38:36.228Z,100436.09
2022-08-03T02:41:08.988Z,100438.56
2022-08-03T02:43:39.226Z,100429.69
2022-08-03T02:46:32.463Z,100435.34
2022-08-03T02:49:34.942Z,100439.53
2022-08-03T02:51:52.269Z,100429.78
2022-08-03T02:54:22.016Z,100427.22
2022-08-03T02:56:50.243Z,100433.91
2022-08-03T02:59:19.532Z,100437.03
2022-08-03T03:01:47.682Z,100431.88
2022-08-03T03:04:16.567Z,100442.66
2022-08-03T03:06:46.942Z,100435.28
2022-08-03T03:09:18.350Z,100435.28
2022-08-03T03:11:46.023Z,100430.28
2022-08-03T03:14:14.626Z,100435.53
2022-08-03T03:16:43.512Z,100431.16
2022-08-03T03:19:15.697Z,100433.72
2022-08-03T03:21:44.590Z,100440.06
2022-08-03T03:24:12.282Z,100436.94
2022-08-03T03:26:42.504Z,100433.81
2022-08-03T03:29:09.963Z,100430.75
2022-08-03T03:31:37.335Z,100429.03
2022-08-03T03:34:05.120Z,100429.91
2022-08-03T03:36:33.854Z,100426.84
2022-08-03T03:39:15.551Z,100434.03
2022-08-03T03:41:43.867Z,100431.28
2022-08-03T03:44:10.925Z,100433.63
2022-08-03T03:46:39.677Z,100425.47
2022-08-03T03:49:07.530Z,100423.75
2022-08-03T03:51:34.986Z,100431.22
2022-08-03T03:54:06.969Z,100420.81
2022-08-03T03:56:34.011Z,100435.75
2022-08-03T03:59:01.103Z,100428.88
2022-08-03T04:01:28.617Z,100433.13
2022-08-03T04:03:55.754Z,100428.75
2022-08-03T04:06:41.690Z,100429.34
2022-08-03T04:09:29.029Z,100433.72
2022-08-03T04:12:01.587Z,100430.91
2022-08-03T04:14:37.390Z,100432.16
2022-08-03T04:17:09.303Z,100432.44
2022-08-03T04:19:49.081Z,100434.84
2022-08-03T04:22:22.563Z,100423.97
2022-08-03T04:25:01.373Z,100435.88
2022-08-03T04:27:38.676Z,100438.25
2022-08-03T04:30:09.144Z,100437.63
2022-08-03T04:32:37.176Z,100430.97
2022-08-03T04:35:06.171Z,100437.53
2022-08-03T04:37:43.240Z,100433.25
2022-08-03T04:40:22.828Z,100444.88
2022-08-03T04:42:53.581Z,100442.28
2022-08-03T04:45:21.719Z,100440.47
2022-08-03T04:47:50.178Z,100440.00
2022-08-03T04:50:21.433Z,100442.84
2022-08-03T04:53:06.110Z,100449.84
2022-08-03T04:55:35.474Z,100447.06
2022-08-03T04:58:04.242Z,100444.72
2022-08-03T05:00:31.357Z,100452.53
2022-08-03T05:02:58.806Z,100459.66
2022-08-03T05:05:25.750Z,100452.41
2022-08-03T05:08:05.236Z,100452.16
2022-08-03T05:10:38.097Z,100452.38
2022-08-03T05:13:05.146Z,100454.56
2022-08-03T05:15:32.073Z,100457.16
2022-08-03T05:17:59.065Z,100465.94
2022-08-03T05:20:26.433Z,100466.97
2022-08-03T05:22:53.400Z,100469.25
2022-08-03T05:25:23.371Z,100473.28
2022-08-03T05:27:54.117Z,100475.56
2022-08-03T05:30:32.624Z,100475.22
2022-08-03T05:33:02.586Z,100479.78
2022-08-03T05:35:57.444Z,100481.41
2022-08-03T05:38:23.761Z,100483.72
2022-08-03T05:40:56.728Z,100479.97
2022-08-03T05:43:24.292Z,100487.97
2022-08-03T05:46:01.752Z,100488.66
2022-08-03T05:48:38.370Z,100490.94
2022-08-03T05:51:07.529Z,100482.81
2022-08-03T05:53:35.223Z,100491.56
2022-08-03T05:56:13.328Z,100490.03
2022-08-03T05:58:47.610Z,100482.19
2022-08-03T06:01:17.231Z,100481.78
2022-08-03T06:03:46.009Z,100492.00
2022-08-03T06:06:13.245Z,100486.69
2022-08-03T06:08:41.774Z,100483.56
2022-08-03T06:11:09.648Z,100483.06
2022-08-03T06:13:37.264Z,100480.00
2022-08-03T06:16:04.569Z,100478.50
2022-08-03T06:18:31.751Z,100478.97
2022-08-03T06:20:58.750Z,100471.69
2022-08-03T06:23:54.850Z,100470.19
2022-08-03T06:26:25.378Z,100475.25
2022-08-03T06:28:54.252Z,100474.50
2022-08-03T06:31:33.090Z,100470.44
2022-08-03T06:34:32.324Z,100466.47
2022-08-03T06:36:52.152Z,100472.69
2022-08-03T06:39:20.559Z,100467.41
2022-08-03T06:41:52.851Z,100462.13
2022-08-03T06:44:20.055Z,100467.03
2022-08-03T06:46:47.708Z,100461.69
2022-08-03T06:49:14.776Z,100464.66
2022-08-03T06:52:05.802Z,100464.22
2022-08-03T06:54:32.581Z,100467.72
2022-08-03T06:57:00.047Z,100466.03
2022-08-03T07:00:07.918Z,100470.09
2022-08-03T07:02:19.053Z,100471.44
2022-08-03T07:04:49.733Z,100460.97
2022-08-03T07:07:17.489Z,100467.72
2022-08-03T07:09:56.678Z,100464.44
2022-08-03T07:12:26.223Z,100465.97
2022-08-03T07:14:56.664Z,100469.66
2022-08-03T07:17:29.047Z,100470.56
2022-08-03T07:19:56.678Z,100469.34
2022-08-03T07:22:24.047Z,100470.81
2022-08-03T07:24:51.023Z,100469.38
2022-08-03T07:27:18.154Z,100476.59
2022-08-03T07:29:45.306Z,100474.88
2022-08-03T07:32:12.372Z,100474.31
2022-08-03T07:34:39.311Z,100477.97
2022-08-03T07:37:06.463Z,100476.00
2022-08-03T07:39:33.471Z,100470.03
2022-08-03T07:42:00.427Z,100476.50
2022-08-03T07:44:27.413Z,100471.84
2022-08-03T07:46:54.412Z,100466.84
2022-08-03T07:49:23.777Z,100474.88
2022-08-03T07:52:10.966Z,100469.00
2022-08-03T07:54:38.095Z,100475.88
2022-08-03T07:57:05.147Z,100464.97
2022-08-03T07:59:56.539Z,100464.59
2022-08-03T08:02:19.884Z,100462.84
2022-08-03T08:04:46.934Z,100461.00
2022-08-03T08:07:14.037Z,100463.09
2022-08-03T08:09:42.590Z,100471.25
2022-08-03T08:12:15.326Z,100462.44
2022-08-03T08:14:45.679Z,100453.94
2022-08-03T08:17:13.933Z,100457.56
2022-08-03T08:19:43.826Z,100454.03
2022-08-03T08:22:30.013Z,100452.03
2022-08-03T08:25:01.794Z,100451.16
2022-08-03T08:28:21.626Z,100451.69
2022-08-03T08:30:22.453Z,100455.81
2022-08-03T08:32:50.398Z,100446.34
2022-08-03T08:35:18.453Z,100448.28
2022-08-03T08:37:50.703Z,100443.75
2022-08-03T08:40:22.545Z,100448.59
2022-08-03T08:42:58.771Z,100448.13
2022-08-03T08:45:26.755Z,100452.84
2022-08-03T08:48:01.658Z,100450.16
2022-08-03T08:50:31.789Z,100438.97
2022-08-03T08:53:03.179Z,100439.00
2022-08-03T08:55:58.852Z,100432.03
2022-08-03T08:58:21.755Z,100445.19
2022-08-03T09:00:49.289Z,100443.69
2022-08-03T09:03:22.635Z,100436.59
2022-08-03T09:05:56.672Z,100436.13
2022-08-03T09:08:23.928Z,100427.81
2022-08-03T09:10:50.931Z,100431.09
2022-08-03T09:13:18.072Z,100428.03
2022-08-03T09:16:01.222Z,100426.84
2022-08-03T09:18:33.338Z,100424.44
2022-08-03T09:21:33.214Z,100423.91
2022-08-03T09:24:06.244Z,100419.47
2022-08-03T09:26:38.032Z,100415.94
2022-08-03T09:29:13.884Z,100417.75
2022-08-03T09:31:46.948Z,100418.88
2022-08-03T09:34:17.483Z,100418.31
2022-08-03T09:36:50.694Z,100412.56
2022-08-03T09:39:40.231Z,100413.06
2022-08-03T09:42:23.896Z,100418.31
2022-08-03T09:44:52.474Z,100414.38
2022-08-03T09:47:45.022Z,100406.69
2022-08-03T09:50:12.917Z,100410.75
2022-08-03T09:52:49.414Z,100407.25
2022-08-03T09:56:30.653Z,100405.88
2022-08-03T09:58:11.069Z,100405.06
2022-08-03T10:01:01.793Z,100392.94
2022-08-03T10:03:31.213Z,100398.97
2022-08-03T10:06:00.022Z,100402.22
2022-08-03T10:08:27.680Z,100400.91
2022-08-03T10:10:54.736Z,100390.66
2022-08-03T10:13:23.383Z,100394.81
2022-08-03T10:16:24.146Z,100390.94
2022-08-03T10:18:38.197Z,100388.22
2022-08-03T10:21:14.048Z,100388.22
2022-08-03T10:23:42.039Z,100379.56
2022-08-03T10:26:18.935Z,100387.09
2022-08-03T10:28:53.021Z,100384.53
2022-08-03T10:31:22.301Z,100380.31
2022-08-03T10:33:53.349Z,100378.94
2022-08-03T10:36:27.389Z,100371.84
2022-08-03T10:38:57.010Z,100364.16
2022-08-03T10:41:31.362Z,100358.06
2022-08-03T10:44:17.734Z,100354.16
2022-08-03T10:46:47.595Z,100362.47
2022-08-03T10:49:31.863Z,100357.22
2022-08-03T10:52:10.412Z,100351.28
2022-08-03T10:55:07.482Z,100346.66
2022-08-03T10:58:11.092Z,100342.00
2022-08-03T11:00:50.967Z,100346.34
2022-08-03T11:03:18.555Z,100335.28
2022-08-03T11:05:49.246Z,100344.44
2022-08-03T11:08:23.684Z,100339.13
2022-08-03T11:10:54.619Z,100343.53
2022-08-03T11:13:25.610Z,100339.66
2022-08-03T11:16:01.758Z,100343.81
2022-08-03T11:18:31.360Z,100334.88
2022-08-03T11:21:00.905Z,100344.44
2022-08-03T11:24:04.714Z,100331.66
2022-08-03T11:26:28.892Z,100323.25
2022-08-03T11:29:31.430Z,100330.56
2022-08-03T11:31:58.474Z,100329.53
2022-08-03T11:34:26.171Z,100324.84
2022-08-03T11:37:23.554Z,100322.19
2022-08-03T11:39:54.676Z,100319.88
2022-08-03T11:42:25.466Z,100318.13
2022-08-03T11:44:57.381Z,100318.28
2022-08-03T11:47:27.468Z,100313.94
2022-08-03T11:49:59.017Z,100310.94
2022-08-03T11:52:28.745Z,100311.53
2022-08-03T11:54:56.996Z,100313.00
2022-08-03T11:59:18.698Z,100311.31
2022-08-03T12:00:33.228Z,100307.38
2022-08-03T12:03:07.423Z,100307.38
2022-08-03T12:05:51.104Z,100301.38
2022-08-03T12:08:27.944Z,100297.81
2022-08-03T12:10:58.064Z,100298.34
2022-08-03T12:14:35.674Z,100291.25
2022-08-03T12:16:23.944Z,100295.91
2022-08-03T12:19:06.915Z,100293.88
2022-08-03T12:21:34.270Z,100297.16
2022-08-03T12:24:05.853Z,100280.69
2022-08-03T12:26:59.230Z,100276.78
2022-08-03T12:29:27.104Z,100278.84
2022-08-03T12:31:56.059Z,100282.91
2022-08-03T12:34:23.615Z,100282.34
2022-08-03T12:36:57.709Z,100277.44
2022-08-03T12:39:30.888Z,100271.13
2022-08-03T12:41:59.059Z,100271.84
2022-08-03T12:44:35.479Z,100270.16
2022-08-03T12:47:06.583Z,100262.56
2022-08-03T12:49:52.132Z,100259.34
2022-08-03T12:52:22.519Z,100255.53
2022-08-03T12:54:58.074Z,100260.94
2022-08-03T12:57:25.409Z,100261.47
2022-08-03T12:59:55.845Z,100260.72
2022-08-03T13:02:27.637Z,100252.53
2022-08-03T13:04:55.936Z,100255.59
2022-08-03T13:07:23.565Z,100246.44
2022-08-03T13:09:53.200Z,100257.44
2022-08-03T13:12:27.028Z,100241.59
2022-08-03T13:14:58.526Z,100241.91
2022-08-03T13:17:26.677Z,100236.72
2022-08-03T13:19:54.188Z,100245.38
2022-08-03T13:22:24.638Z,100232.88
2022-08-03T13:24:58.163Z,100224.75
2022-08-03T13:28:04.148Z,100224.53
2022-08-03T13:30:14.024Z,100229.59
2022-08-03T13:32:50.428Z,100220.47
2022-08-03T13:35:17.614Z,100226.03
2022-08-03T13:37:44.725Z,100219.97
2022-08-03T13:40:16.094Z,100216.03
2022-08-03T13:42:44.184Z,100214.94
2022-08-03T13:45:11.469Z,100216.63
2022-08-03T13:47:38.479Z,100208.41
2022-08-03T13:50:05.790Z,100211.69
2022-08-03T13:52:36.174Z,100205.06
2022-08-03T13:55:06.405Z,100205.28
2022-08-03T13:58:11.638Z,100212.81
2022-08-03T14:00:29.022Z,100204.47
2022-08-03T14:03:17.370Z,100196.84
2022-08-03T14:05:44.736Z,100198.28
2022-08-03T14:08:12.508Z,100184.25
2022-08-03T14:10:43.291Z,100182.72
2022-08-03T14:13:14.459Z,100184.47
2022-08-03T14:15:51.180Z,100184.63
2022-08-03T14:18:27.753Z,100191.03
2022-08-03T14:21:07.390Z,100188.16
2022-08-03T14:23:36.091Z,100180.69
2022-08-03T14:26:03.736Z,100182.75
2022-08-03T14:28:30.783Z,100173.75
2022-08-03T14:30:57.946Z,100173.19
2022-08-03T14:33:25.366Z,100171.59
2022-08-03T14:35:52.702Z,100166.66
2022-08-03T14:38:20.660Z,100174.91
2022-08-03T14:41:02.297Z,100165.41
2022-08-03T14:43:33.982Z,100169.47
2022-08-03T14:46:01.562Z,100165.25
2022-08-03T14:50:30.372Z,100170.06
2022-08-03T14:51:15.526Z,100166.28
2022-08-03T14:53:42.524Z,100162.88
2022-08-03T14:56:10.750Z,100160.22
2022-08-03T14:58:38.374Z,100155.53
2022-08-03T15:02:02.223Z,100162.66
2022-08-03T15:03:54.507Z,100154.44
2022-08-03T15:06:21.585Z,100156.31
2022-08-03T15:09:13.798Z,100152.31
2022-08-03T15:11:36.899Z,100138.34
2022-08-03T15:14:08.690Z,100137.91
2022-08-03T15:16:36.910Z,100139.22
2022-08-03T15:19:04.848Z,100137.41
2022-08-03T15:21:51.556Z,100128.94
2022-08-03T15:24:19.324Z,100122.56
2022-08-03T15:26:46.331Z,100111.41
2022-08-03T15:30:04.968Z,100119.03
2022-08-03T15:32:01.060Z,100114.75
2022-08-03T15:34:28.183Z,100111.03
2022-08-03T15:36:55.172Z,100108.06
2022-08-03T15:39:22.208Z,100107.50
2022-08-03T15:41:49.263Z,100100.22
2022-08-03T15:44:19.893Z,100107.59
2022-08-03T15:46:47.726Z,100111.31
2022-08-03T15:49:14.934Z,100104.06
2022-08-03T15:51:41.924Z,100102.25
2022-08-03T15:54:09.134Z,100103.56
2022-08-03T15:56:36.080Z,100100.59
2022-08-03T15:59:12.776Z,100093.72
2022-08-03T16:01:41.310Z,100094.88
2022-08-03T16:04:08.493Z,100087.28
2022-08-03T16:06:36.581Z,100090.34
2022-08-03T16:09:24.089Z,100088.00
2022-08-03T16:11:55.653Z,100083.00
2022-08-03T16:14:32.369Z,100083.38
2022-08-03T16:17:03.885Z,100081.00
2022-08-03T16:19:31.130Z,100081.19
2022-08-03T16:21:58.236Z,100082.41
2022-08-03T16:24:27.755Z,100086.09
2022-08-03T16:26:56.069Z,100080.19
2022-08-03T16:29:23.858Z,100072.03
2022-08-03T16:31:52.268Z,100073.97
2022-08-03T16:34:20.368Z,100079.63
2022-08-03T16:36:48.712Z,100067.94
2022-08-03T16:39:15.772Z,100079.81
2022-08-03T16:41:54.227Z,100069.00
2022-08-03T16:44:30.708Z,100074.16
2022-08-03T16:46:59.210Z,100064.94
2022-08-03T16:49:55.805Z,100064.75
2022-08-03T16:52:16.463Z,100054.09
2022-08-03T16:54:53.157Z,100068.09
2022-08-03T16:57:59.263Z,100065.78
2022-08-03T17:00:33.701Z,100054.06
2022-08-03T17:03:19.170Z,100061.91
2022-08-03T17:05:51.269Z,100057.47
2022-08-03T17:08:26.742Z,100058.72
2022-08-03T17:10:55.905Z,100060.47
2022-08-03T17:13:27.536Z,100051.00
2022-08-03T17:15:57.940Z,100059.91
2022-08-03T17:18:37.499Z,100056.59
2022-08-03T17:21:10.410Z,100055.06
2022-08-03T17:23:55.758Z,100053.97
2022-08-03T17:26:30.429Z,100059.00
2022-08-03T17:29:12.591Z,100057.59
2022-08-03T17:31:49.610Z,100057.97
2022-08-03T17:34:19.047Z,100058.16
2022-08-03T17:37:03.613Z,100063.81
2022-08-03T17:39:56.784Z,100060.41
2022-08-03T17:42:30.093Z,100058.72
2022-08-03T17:45:08.957Z,100065.16
2022-08-03T17:47:43.765Z,100068.88
2022-08-03T17:50:24.607Z,100065.53
2022-08-03T17:53:15.410Z,100066.22
2022-08-03T17:56:44.331Z,100066.94
2022-08-03T17:59:44.368Z,100078.16
2022-08-03T18:02:52.590Z,100071.88
2022-08-03T18:05:24.830Z,100076.66
2022-08-03T18:08:25.120Z,100078.28
2022-08-03T18:11:14.794Z,100081.84
2022-08-03T18:14:17.377Z,100081.53
2022-08-03T18:16:56.199Z,100085.88
2022-08-03T18:20:02.902Z,100082.53
2022-08-03T18:22:13.752Z,100082.59
2022-08-03T18:24:44.144Z,100083.44
2022-08-03T18:27:15.803Z,100091.94
2022-08-03T18:29:44.737Z,100084.81
2022-08-03T18:32:17.039Z,100085.69
2022-08-03T18:34:53.540Z,100082.00
2022-08-03T18:37:25.590Z,100079.31
2022-08-03T18:39:58.025Z,100087.34
2022-08-03T18:42:26.131Z,100083.13
2022-08-03T18:44:56.513Z,100090.91
2022-08-03T18:47:51.821Z,100088.59
2022-08-03T18:50:25.095Z,100089.34
2022-08-03T18:53:19.678Z,100086.94
2022-08-03T18:56:20.638Z,100088.78
2022-08-03T18:58:51.467Z,100090.25
2022-08-03T19:01:57.805Z,100088.47
2022-08-03T19:04:48.428Z,100091.00
2022-08-03T19:07:24.830Z,100090.59
2022-08-03T19:10:00.032Z,100094.19
2022-08-03T19:12:40.681Z,100092.59
2022-08-03T19:15:12.702Z,100101.13
2022-08-03T19:17:52.746Z,100097.78
2022-08-03T19:20:30.826Z,100097.41
2022-08-03T19:22:59.690Z,100100.72
2022-08-03T19:25:35.391Z,100108.66
2022-08-03T19:28:06.170Z,100114.88
2022-08-03T19:30:46.410Z,100117.84
2022-08-03T19:33:22.802Z,100116.88
2022-08-03T19:35:51.918Z,100114.47
2022-08-03T19:38:27.449Z,100114.66
2022-08-03T19:41:00.316Z,100124.06
2022-08-03T19:43:52.692Z,100116.19
2022-08-03T19:46:30.542Z,100123.28
2022-08-03T19:49:14.990Z,100121.75
2022-08-03T19:51:58.854Z,100119.19
2022-08-03T19:54:53.266Z,100129.38
2022-08-03T19:57:32.634Z,100126.81
2022-08-03T20:00:03.540Z,100132.25
2022-08-03T20:02:32.897Z,100131.38
2022-08-03T20:05:00.753Z,100130.66
2022-08-03T20:07:33.614Z,100128.09
2022-08-03T20:10:05.896Z,100126.09
2022-08-03T20:12:38.752Z,100120.69
2022-08-03T20:15:07.500Z,100132.94
2022-08-03T20:17:56.086Z,100127.16
2022-08-03T20:20:29.741Z,100133.97
2022-08-03T20:22:59.586Z,100122.13
2022-08-03T20:25:38.296Z,100130.28
2022-08-03T20:28:15.147Z,100122.66
2022-08-03T20:30:47.520Z,100122.63
2022-08-03T20:33:18.290Z,100134.69
2022-08-03T20:35:48.820Z,100128.59
2022-08-03T20:38:18.738Z,100120.41
2022-08-03T20:40:49.677Z,100130.94
2022-08-03T20:43:19.927Z,100126.00
2022-08-03T20:45:59.918Z,100130.09
2022-08-03T20:48:37.226Z,100134.50
2022-08-03T20:51:05.376Z,100129.22
2022-08-03T20:53:59.452Z,100124.84
2022-08-03T20:56:33.657Z,100118.41
2022-08-03T20:59:07.106Z,100124.31
2022-08-03T21:01:42.252Z,100132.88
2022-08-03T21:04:11.927Z,100125.06
2022-08-03T21:06:53.490Z,100123.06
2022-08-03T21:09:39.852Z,100125.38
2022-08-03T21:12:12.822Z,100117.44
2022-08-03T21:14:58.951Z,100126.06
2022-08-03T21:17:40.569Z,100121.56
2022-08-03T21:20:13.216Z,100117.00
2022-08-03T21:22:56.380Z,100114.25
2022-08-03T21:25:30.567Z,100119.88
2022-08-03T21:27:58.681Z,100111.50
2022-08-03T21:30:28.055Z,100116.53
2022-08-03T21:32:58.252Z,100114.47
2022-08-03T21:35:26.727Z,100112.25
2022-08-03T21:38:13.231Z,100117.50
2022-08-03T21:40:44.388Z,100114.88
2022-08-03T21:43:11.472Z,100117.63
2022-08-03T21:46:06.346Z,100115.16
2022-08-03T21:48:40.092Z,100110.22
2022-08-03T21:51:09.723Z,100113.16
2022-08-03T21:54:02.877Z,100111.28
2022-08-03T21:56:27.875Z,100118.69
2022-08-03T21:59:00.088Z,100115.50
2022-08-03T22:01:29.470Z,100118.44
2022-08-03T22:04:09.310Z,100111.09
2022-08-03T22:06:42.297Z,100114.81
2022-08-03T22:09:09.696Z,100126.19
2022-08-03T22:11:39.831Z,100109.97
2022-08-03T22:14:07.058Z,100127.31
2022-08-03T22:16:34.139Z,100127.09
2022-08-03T22:19:01.187Z,100131.75
2022-08-03T22:21:36.098Z,100121.09
2022-08-03T22:24:05.861Z,100127.38
2022-08-03T22:26:35.833Z,100122.47
2022-08-03T22:29:08.165Z,100130.78
2022-08-03T22:31:57.453Z,100127.81
2022-08-03T22:34:27.067Z,100127.31
2022-08-03T22:37:01.423Z,100120.78
2022-08-03T22:39:29.688Z,100121.97
2022-08-03T22:41:59.967Z,100121.59
2022-08-03T22:44:28.112Z,100124.81
2022-08-03T22:46:56.669Z,100128.69
2022-08-03T22:49:24.867Z,100125.75
2022-08-03T22:51:53.407Z,100129.38
2022-08-03T22:54:20.847Z,100130.22
2022-08-03T22:56:49.126Z,100123.97
2022-08-03T22:59:40.313Z,100132.31
2022-08-03T23:02:20.750Z,100134.34
2022-08-03T23:04:55.267Z,100133.22
2022-08-03T23:07:32.642Z,100135.22
2022-08-03T23:10:03.623Z,100128.13
2022-08-03T23:12:35.815Z,100140.19
2022-08-03T23:15:07.867Z,100139.81
2022-08-03T23:17:57.657Z,100138.28
2022-08-03T23:20:27.038Z,100135.06
2022-08-03T23:22:57.692Z,100129.19
2022-08-03T23:25:26.536Z,100133.19
2022-08-03T23:28:05.241Z,100132.75
2022-08-03T23:30:37.082Z,100139.81
2022-08-03T23:33:04.570Z,100138.19
2022-08-03T23:36:28.145Z,100132.97
2022-08-03T23:38:37.970Z,100135.38
2022-08-03T23:41:08.031Z,100136.97
2022-08-03T23:43:45.168Z,100138.25
2022-08-03T23:46:23.811Z,100138.69
2022-08-03T23:48:51.150Z,100132.84
2022-08-03T23:51:40.916Z,100136.13
2022-08-03T23:54:26.676Z,100128.44
2022-08-03T23:57:15.326Z,100121.06
